createdAt,value
2023-03-24T00:02:29.015Z,3.10
2023-03-24T00:08:36.953Z,6.65
2023-03-24T00:14:38.944Z,5.20
2023-03-24T00:20:42.462Z,6.88
2023-03-24T00:26:46.477Z,4.03
2023-03-24T00:32:49.528Z,8.35
2023-03-24T00:38:53.222Z,8.32
2023-03-24T00:44:55.132Z,6.00
2023-03-24T00:50:57.430Z,4.32
2023-03-24T00:57:03.267Z,3.33
2023-03-24T01:03:05.536Z,5.63
2023-03-24T01:09:07.981Z,6.35
2023-03-24T01:15:15.411Z,5.55
2023-03-24T01:21:18.467Z,5.82
2023-03-24T01:27:20.457Z,3.88
2023-03-24T01:33:23.627Z,5.45
2023-03-24T01:39:25.482Z,4.45
2023-03-24T01:45:39.545Z,4.32
2023-03-24T01:51:46.625Z,2.92
2023-03-24T01:57:52.921Z,3.03
2023-03-24T02:03:54.933Z,4.25
2023-03-24T02:09:57.540Z,4.05
2023-03-24T02:16:23.629Z,2.67
2023-03-24T02:22:37.219Z,4.72
2023-03-24T02:28:42.285Z,5.82
2023-03-24T02:35:15.694Z,4.20
2023-03-24T02:41:30.485Z,3.08
2023-03-24T02:48:17.542Z,3.45
2023-03-24T02:54:25.577Z,5.03
2023-03-24T03:00:48.824Z,2.63
2023-03-24T03:06:56.787Z,2.95
2023-03-24T03:13:01.998Z,4.40
2023-03-24T03:19:11.006Z,5.45
2023-03-24T03:25:16.021Z,5.13
2023-03-24T03:31:30.265Z,4.88
2023-03-24T03:37:44.868Z,4.43
2023-03-24T03:43:49.777Z,4.35
2023-03-24T03:49:51.961Z,5.32
2023-03-24T03:55:54.136Z,4.28
2023-03-24T04:01:57.560Z,3.20
2023-03-24T04:08:37.890Z,3.87
2023-03-24T04:14:45.741Z,3.67
2023-03-24T04:21:04.325Z,5.15
2023-03-24T04:27:27.297Z,3.88
2023-03-24T04:33:48.691Z,4.35
2023-03-24T04:39:54.201Z,5.03
2023-03-24T04:45:58.063Z,4.85
2023-03-24T04:52:00.648Z,4.20
2023-03-24T04:58:02.882Z,5.90
2023-03-24T05:04:05.295Z,4.85
2023-03-24T05:10:07.870Z,4.05
2023-03-24T05:16:10.241Z,4.82
2023-03-24T05:22:12.227Z,4.97
2023-03-24T05:28:14.175Z,5.13
2023-03-24T05:34:15.985Z,5.15
2023-03-24T05:40:18.126Z,5.22
2023-03-24T05:46:20.237Z,4.88
2023-03-24T05:52:22.828Z,7.82
2023-03-24T05:58:24.901Z,3.38
2023-03-24T06:04:30.765Z,3.30
2023-03-24T06:10:32.573Z,2.58
2023-03-24T06:16:38.842Z,2.97
2023-03-24T06:22:40.759Z,2.65
2023-03-24T06:28:43.470Z,3.03
2023-03-24T06:34:45.391Z,2.58
2023-03-24T06:40:47.289Z,2.40
2023-03-24T06:46:49.334Z,2.00
2023-03-24T06:52:51.189Z,2.63
2023-03-24T06:58:53.035Z,2.00
2023-03-24T07:04:55.233Z,0.88
2023-03-24T07:10:57.907Z,3.15
2023-03-24T07:16:59.892Z,3.10
2023-03-24T07:23:01.828Z,2.83
2023-03-24T07:29:04.149Z,4.60
2023-03-24T07:35:11.895Z,3.30
2023-03-24T07:41:13.908Z,4.78
2023-03-24T07:47:15.790Z,5.43
2023-03-24T07:53:20.254Z,6.47
2023-03-24T07:59:22.182Z,9.73
2023-03-24T08:05:25.115Z,6.90
2023-03-24T08:11:26.948Z,9.25
2023-03-24T08:17:29.315Z,15.02
2023-03-24T08:23:31.749Z,6.53
2023-03-24T08:29:34.731Z,5.40
2023-03-24T08:35:40.085Z,7.95
2023-03-24T08:41:41.984Z,7.22
2023-03-24T08:47:43.851Z,10.13
2023-03-24T08:53:45.884Z,11.35
2023-03-24T08:59:49.005Z,9.40
2023-03-24T09:05:59.658Z,16.00
2023-03-24T09:12:03.012Z,14.18
2023-03-24T09:18:05.209Z,9.77
2023-03-24T09:24:07.406Z,7.70
2023-03-24T09:30:10.957Z,9.30
2023-03-24T09:36:14.002Z,9.05
2023-03-24T09:42:25.133Z,8.13
2023-03-24T09:48:53.303Z,7.75
2023-03-24T09:54:58.839Z,6.35
2023-03-24T10:01:01.273Z,5.43
2023-03-24T10:07:42.923Z,6.57
2023-03-24T10:13:54.865Z,6.88
2023-03-24T10:20:07.792Z,6.57
2023-03-24T10:26:54.144Z,9.85
2023-03-24T10:32:56.210Z,7.75
2023-03-24T10:39:01.873Z,8.95
2023-03-24T10:45:14.690Z,7.28
2023-03-24T10:51:21.630Z,5.25
2023-03-24T10:57:24.881Z,8.98
2023-03-24T11:03:32.872Z,8.30
2023-03-24T11:09:46.386Z,5.97
2023-03-24T11:16:05.920Z,5.57
2023-03-24T11:22:11.330Z,8.85
2023-03-24T11:28:27.633Z,5.93
2023-03-24T11:34:39.098Z,6.90
2023-03-24T11:40:54.523Z,4.78
2023-03-24T11:47:01.210Z,5.63
2023-03-24T11:53:23.285Z,9.32
2023-03-24T11:59:52.350Z,5.43
2023-03-24T12:06:17.122Z,6.80
2023-03-24T12:12:38.132Z,8.48
2023-03-24T12:18:48.792Z,10.20
2023-03-24T12:25:12.255Z,7.65
2023-03-24T12:31:41.915Z,4.07
2023-03-24T12:38:02.372Z,4.75
2023-03-24T12:44:22.774Z,3.78
2023-03-24T12:50:31.275Z,5.00
2023-03-24T12:56:45.716Z,5.82
2023-03-24T13:02:58.870Z,7.90
2023-03-24T13:09:13.402Z,7.57
2023-03-24T13:15:39.942Z,5.40
2023-03-24T13:21:43.266Z,5.47
2023-03-24T13:27:49.844Z,7.47
2023-03-24T13:33:54.432Z,5.63
2023-03-24T13:40:01.696Z,6.15
2023-03-24T13:46:13.937Z,8.20
2023-03-24T13:52:29.008Z,5.68
2023-03-24T13:58:58.444Z,5.47
2023-03-24T14:05:11.832Z,4.50
2023-03-24T14:11:32.098Z,7.20
2023-03-24T14:17:33.878Z,6.05
2023-03-24T14:23:41.119Z,8.68
2023-03-24T14:29:51.481Z,6.75
2023-03-24T14:36:01.873Z,4.03
2023-03-24T14:42:32.680Z,6.05
2023-03-24T14:48:40.446Z,6.70
2023-03-24T14:54:53.792Z,7.55
2023-03-24T15:07:05.342Z,5.82
2023-03-24T15:13:27.043Z,6.75
2023-03-24T15:19:31.433Z,4.80
2023-03-24T15:25:33.695Z,8.40
2023-03-24T15:31:38.046Z,6.57
2023-03-24T15:37:48.209Z,3.53
2023-03-24T15:43:53.037Z,7.47
2023-03-24T15:49:57.912Z,2.40
2023-03-24T15:56:11.853Z,4.18
2023-03-24T16:02:42.584Z,2.67
2023-03-24T16:08:46.508Z,4.82
2023-03-24T16:14:48.743Z,4.50
2023-03-24T16:20:52.109Z,1.58
2023-03-24T16:26:53.938Z,1.55
2023-03-24T16:32:56.038Z,2.00
2023-03-24T16:38:59.830Z,1.35
2023-03-24T16:45:01.675Z,1.53
2023-03-24T16:51:03.791Z,3.65
2023-03-24T16:57:06.065Z,2.30
2023-03-24T17:03:08.480Z,1.95
2023-03-24T17:09:12.655Z,4.88
2023-03-24T17:15:30.089Z,3.40
2023-03-24T17:21:37.589Z,1.42
2023-03-24T17:27:39.575Z,1.70
2023-03-24T17:33:42.005Z,1.70
2023-03-24T17:39:44.240Z,1.77
2023-03-24T17:45:46.456Z,3.50
2023-03-24T17:51:48.490Z,2.05
2023-03-24T17:57:50.317Z,3.63
2023-03-24T18:03:52.272Z,2.35
2023-03-24T18:09:54.499Z,7.43
2023-03-24T18:15:58.985Z,6.00
2023-03-24T18:22:04.309Z,3.63
2023-03-24T18:28:06.791Z,5.35
2023-03-24T18:34:08.895Z,5.30
2023-03-24T18:40:11.537Z,5.05
2023-03-24T18:46:13.688Z,5.72
2023-03-24T18:52:18.082Z,7.25
2023-03-24T18:58:20.145Z,4.68
2023-03-24T19:04:22.061Z,5.85
2023-03-24T19:10:23.948Z,5.63
2023-03-24T19:16:26.398Z,5.68
2023-03-24T19:22:28.524Z,5.15
2023-03-24T19:28:32.405Z,3.65
2023-03-24T19:34:34.243Z,7.13
2023-03-24T19:40:36.204Z,2.95
2023-03-24T19:46:38.445Z,3.10
2023-03-24T19:52:43.108Z,2.53
2023-03-24T19:58:45.005Z,3.20
2023-03-24T20:04:46.884Z,2.83
2023-03-24T20:10:48.754Z,3.35
2023-03-24T20:16:50.798Z,3.20
2023-03-24T20:22:53.032Z,4.45
2023-03-24T20:28:54.905Z,4.57
2023-03-24T20:34:56.776Z,3.20
2023-03-24T20:40:59.490Z,3.83
2023-03-24T20:47:01.358Z,3.72
2023-03-24T20:53:03.200Z,4.35
2023-03-24T20:59:07.013Z,2.40
2023-03-24T21:05:09.651Z,2.93
2023-03-24T21:11:11.729Z,5.63
2023-03-24T21:17:14.081Z,4.57
2023-03-24T21:23:18.596Z,3.22
2023-03-24T21:35:25.091Z,2.33
2023-03-24T21:41:28.926Z,2.97
2023-03-24T21:47:30.725Z,3.10
2023-03-24T21:53:35.036Z,5.80
2023-03-24T21:59:37.871Z,3.20
2023-03-24T22:05:40.554Z,4.90
2023-03-24T22:11:43.071Z,5.40
2023-03-24T22:17:45.071Z,5.15
2023-03-24T22:23:47.004Z,3.92
2023-03-24T22:29:48.893Z,3.58
2023-03-24T22:35:55.313Z,4.55
2023-03-24T22:41:57.509Z,3.45
2023-03-24T22:47:59.857Z,2.75
2023-03-24T22:54:01.686Z,3.35
2023-03-24T23:00:06.316Z,3.45
2023-03-24T23:06:09.909Z,2.90
2023-03-24T23:12:13.670Z,4.03
2023-03-24T23:18:16.797Z,4.53
2023-03-24T23:24:18.742Z,3.50
2023-03-24T23:30:21.244Z,5.97
2023-03-24T23:36:26.301Z,6.20
2023-03-24T23:42:29.435Z,5.15
2023-03-24T23:48:31.777Z,4.63
2023-03-24T23:54:33.708Z,5.55
